KCLM/CLM METAR and TAF weather

Enter ICAO airport designator
Station Type Date Time Source
KCLM METAR 2020/09/19 17:53 UTC NOAA

KCLM 191753Z AUTO VRB04KT 10SM OVC060 17/13 A3004 RMK AO2 SLP172 T01720128 10183 20128 51014


Station Type Date Time Source
KCLM Decoded METAR 2020/09/19 17:53 UTC NOAA

PORT ANGELES FAIRCHILD INTERNATIONAL , WA, United States (KCLM) 48-07N 123-30W 85M
Sep 19, 2020 - 01:53 PM EDT / 2020.09.19 1753 UTC
Wind: Variable at 5 MPH (4 KT):0
Visibility: 10 mile(s):0
Sky conditions: overcast
Temperature: 63.0 F (17.2 C)
Dew Point: 55.0 F (12.8 C)
Relative Humidity: 75%
Pressure (altimeter): 30.04 in. Hg (1017 hPa)
Pressure tendency: 0.04 inches (1.4 hPa) higher than three hours ago
ob: KCLM 191753Z AUTO VRB04KT 10SM OVC060 17/13 A3004 RMK AO2 SLP172 T01720128 10183 20128 51014
cycle: 18

Station Type Date Time Source
KCLM TAF 2020/09/19 18:30 UTC NOAA

TAF KCLM 191728Z 1918/2018 24004KT P6SM OVC050
FM192100 30006KT P6SM SCT040 BKN050
FM200700 29004KT P6SM OVC020
FM201000 27003KT P6SM SCT007 OVC015

Example: see airport list